sensor_id;sensor_type;location;lat;lon;timestamp;pressure;altitude;pressure_sealevel;temperature;humidity
51321;BME280;38732;49.556;6.286;2023-04-21T00:01:12;99240.13;;;8.36;98.83
51321;BME280;38732;49.556;6.286;2023-04-21T00:03:40;99238.38;;;8.35;100.00
51321;BME280;38732;49.556;6.286;2023-04-21T00:06:08;99226.44;;;8.45;99.67
51321;BME280;38732;49.556;6.286;2023-04-21T00:08:36;99228.16;;;8.46;100.00
51321;BME280;38732;49.556;6.286;2023-04-21T00:11:05;99218.84;;;8.73;99.16
51321;BME280;38732;49.556;6.286;2023-04-21T00:13:35;99215.34;;;8.54;97.44
51321;BME280;38732;49.556;6.286;2023-04-21T00:16:03;99221.34;;;8.54;99.50
51321;BME280;38732;49.556;6.286;2023-04-21T00:18:32;99212.81;;;8.64;97.79
51321;BME280;38732;49.556;6.286;2023-04-21T00:21:00;99219.69;;;8.73;97.25
51321;BME280;38732;49.556;6.286;2023-04-21T00:23:28;99221.34;;;8.50;97.29
51321;BME280;38732;49.556;6.286;2023-04-21T00:25:56;99231.50;;;8.33;99.39
51321;BME280;38732;49.556;6.286;2023-04-21T00:28:25;99229.78;;;8.32;98.00
51321;BME280;38732;49.556;6.286;2023-04-21T00:30:53;99223.00;;;8.40;98.54
51321;BME280;38732;49.556;6.286;2023-04-21T00:33:21;99224.78;;;8.49;96.54
51321;BME280;38732;49.556;6.286;2023-04-21T00:35:49;99221.34;;;8.51;92.53
51321;BME280;38732;49.556;6.286;2023-04-21T00:38:17;99227.06;;;8.04;99.88
51321;BME280;38732;49.556;6.286;2023-04-21T00:40:46;99222.78;;;8.05;98.72
51321;BME280;38732;49.556;6.286;2023-04-21T00:43:14;99220.19;;;8.02;99.19
51321;BME280;38732;49.556;6.286;2023-04-21T00:45:44;99221.03;;;8.04;99.06
51321;BME280;38732;49.556;6.286;2023-04-21T00:48:12;99215.16;;;8.23;93.59
51321;BME280;38732;49.556;6.286;2023-04-21T00:50:42;99211.66;;;8.13;93.03
51321;BME280;38732;49.556;6.286;2023-04-21T00:53:11;99210.81;;;8.07;92.53
51321;BME280;38732;49.556;6.286;2023-04-21T00:55:41;99209.75;;;7.80;94.13
51321;BME280;38732;49.556;6.286;2023-04-21T00:58:09;99207.31;;;7.97;94.24
51321;BME280;38732;49.556;6.286;2023-04-21T01:00:38;99208.00;;;7.73;96.16
51321;BME280;38732;49.556;6.286;2023-04-21T01:03:06;99208.06;;;7.85;92.96
51321;BME280;38732;49.556;6.286;2023-04-21T01:05:34;99210.53;;;7.70;91.52
51321;BME280;38732;49.556;6.286;2023-04-21T01:08:05;99211.34;;;7.63;94.14
51321;BME280;38732;49.556;6.286;2023-04-21T01:10:33;99206.28;;;7.73;94.80
51321;BME280;38732;49.556;6.286;2023-04-21T01:13:01;99206.13;;;7.53;90.12
51321;BME280;38732;49.556;6.286;2023-04-21T01:15:29;99213.78;;;7.44;90.13
51321;BME280;38732;49.556;6.286;2023-04-21T01:17:58;99212.69;;;7.19;94.82
51321;BME280;38732;49.556;6.286;2023-04-21T01:20:26;99217.94;;;7.31;92.40
51321;BME280;38732;49.556;6.286;2023-04-21T01:22:54;99222.19;;;7.31;92.13
51321;BME280;38732;49.556;6.286;2023-04-21T01:25:22;99223.69;;;7.06;94.78
51321;BME280;38732;49.556;6.286;2023-04-21T01:27:50;99223.66;;;7.03;93.49
51321;BME280;38732;49.556;6.286;2023-04-21T01:30:19;99223.03;;;7.28;90.79
51321;BME280;38732;49.556;6.286;2023-04-21T01:32:47;99210.19;;;7.27;91.51
51321;BME280;38732;49.556;6.286;2023-04-21T01:35:15;99215.97;;;7.04;94.04
51321;BME280;38732;49.556;6.286;2023-04-21T01:37:43;99209.94;;;6.99;94.30
51321;BME280;38732;49.556;6.286;2023-04-21T01:40:11;99209.69;;;6.78;97.00
51321;BME280;38732;49.556;6.286;2023-04-21T01:42:41;99207.19;;;6.84;94.34
51321;BME280;38732;49.556;6.286;2023-04-21T01:45:10;99215.59;;;6.69;98.12
51321;BME280;38732;49.556;6.286;2023-04-21T01:47:38;99206.41;;;6.89;95.75
51321;BME280;38732;49.556;6.286;2023-04-21T01:50:06;99205.53;;;6.87;94.74
51321;BME280;38732;49.556;6.286;2023-04-21T01:52:35;99208.97;;;6.91;91.97
51321;BME280;38732;49.556;6.286;2023-04-21T01:55:03;99208.94;;;6.85;91.74
51321;BME280;38732;49.556;6.286;2023-04-21T01:57:31;99213.91;;;6.69;97.06
51321;BME280;38732;49.556;6.286;2023-04-21T02:00:00;99202.09;;;6.88;94.23
51321;BME280;38732;49.556;6.286;2023-04-21T02:02:28;99212.28;;;6.79;94.35
51321;BME280;38732;49.556;6.286;2023-04-21T02:04:56;99216.38;;;6.63;94.03
51321;BME280;38732;49.556;6.286;2023-04-21T02:07:24;99208.72;;;6.68;92.90
51321;BME280;38732;49.556;6.286;2023-04-21T02:09:53;99199.97;;;6.49;95.66
51321;BME280;38732;49.556;6.286;2023-04-21T02:12:21;99199.91;;;6.44;98.60
51321;BME280;38732;49.556;6.286;2023-04-21T02:14:49;99190.63;;;6.54;94.98
51321;BME280;38732;49.556;6.286;2023-04-21T02:17:17;99187.34;;;6.64;93.96
51321;BME280;38732;49.556;6.286;2023-04-21T02:19:45;99185.50;;;6.54;93.30
51321;BME280;38732;49.556;6.286;2023-04-21T02:22:13;99189.50;;;6.32;93.91
51321;BME280;38732;49.556;6.286;2023-04-21T02:24:42;99195.28;;;6.14;96.28
51321;BME280;38732;49.556;6.286;2023-04-21T02:27:10;99193.78;;;5.72;99.46
51321;BME280;38732;49.556;6.286;2023-04-21T02:29:38;99191.97;;;6.24;96.60
51321;BME280;38732;49.556;6.286;2023-04-21T02:32:07;99196.13;;;6.15;95.29
51321;BME280;38732;49.556;6.286;2023-04-21T02:34:35;99191.91;;;6.20;96.14
51321;BME280;38732;49.556;6.286;2023-04-21T02:37:03;99189.50;;;6.32;95.63
51321;BME280;38732;49.556;6.286;2023-04-21T02:39:32;99178.34;;;6.27;97.00
51321;BME280;38732;49.556;6.286;2023-04-21T02:42:00;99174.19;;;6.38;93.97
51321;BME280;38732;49.556;6.286;2023-04-21T02:44:28;99176.84;;;6.44;91.78
51321;BME280;38732;49.556;6.286;2023-04-21T02:46:56;99179.88;;;6.16;90.00
51321;BME280;38732;49.556;6.286;2023-04-21T02:49:24;99178.91;;;6.04;90.98
51321;BME280;38732;49.556;6.286;2023-04-21T02:51:52;99174.53;;;5.99;93.58
51321;BME280;38732;49.556;6.286;2023-04-21T02:54:21;99166.19;;;6.12;90.87
51321;BME280;38732;49.556;6.286;2023-04-21T02:56:49;99168.63;;;6.03;92.53
51321;BME280;38732;49.556;6.286;2023-04-21T02:59:17;99160.44;;;5.69;91.22
51321;BME280;38732;49.556;6.286;2023-04-21T03:01:45;99157.22;;;5.84;89.74
51321;BME280;38732;49.556;6.286;2023-04-21T03:04:13;99156.19;;;5.70;90.42
51321;BME280;38732;49.556;6.286;2023-04-21T03:06:42;99159.75;;;5.79;93.44
51321;BME280;38732;49.556;6.286;2023-04-21T03:09:10;99168.00;;;5.61;94.30
51321;BME280;38732;49.556;6.286;2023-04-21T03:11:38;99168.22;;;5.75;94.23
51321;BME280;38732;49.556;6.286;2023-04-21T03:14:06;99171.56;;;5.70;96.08
51321;BME280;38732;49.556;6.286;2023-04-21T03:16:34;99163.88;;;5.70;94.55
51321;BME280;38732;49.556;6.286;2023-04-21T03:19:03;99161.19;;;5.62;94.91
51321;BME280;38732;49.556;6.286;2023-04-21T03:21:31;99159.66;;;5.76;94.01
51321;BME280;38732;49.556;6.286;2023-04-21T03:23:59;99158.91;;;5.82;91.07
51321;BME280;38732;49.556;6.286;2023-04-21T03:26:27;99162.00;;;5.61;93.40
51321;BME280;38732;49.556;6.286;2023-04-21T03:28:55;99164.84;;;5.79;92.86
51321;BME280;38732;49.556;6.286;2023-04-21T03:31:24;99157.47;;;5.99;90.40
51321;BME280;38732;49.556;6.286;2023-04-21T03:33:52;99155.50;;;5.83;90.64
51321;BME280;38732;49.556;6.286;2023-04-21T03:36:20;99165.56;;;5.69;90.63
51321;BME280;38732;49.556;6.286;2023-04-21T03:38:48;99165.59;;;5.72;91.91
51321;BME280;38732;49.556;6.286;2023-04-21T03:41:16;99173.88;;;5.56;89.08
51321;BME280;38732;49.556;6.286;2023-04-21T03:43:45;99170.66;;;5.68;88.06
51321;BME280;38732;49.556;6.286;2023-04-21T03:46:20;99178.78;;;5.40;92.47
51321;BME280;38732;49.556;6.286;2023-04-21T03:48:48;99179.63;;;5.39;93.19
51321;BME280;38732;49.556;6.286;2023-04-21T03:51:17;99186.50;;;5.42;94.46
51321;BME280;38732;49.556;6.286;2023-04-21T03:53:45;99189.28;;;5.57;89.49
51321;BME280;38732;49.556;6.286;2023-04-21T03:56:13;99184.66;;;5.36;91.65
51321;BME280;38732;49.556;6.286;2023-04-21T03:58:41;99183.03;;;5.40;90.62
51321;BME280;38732;49.556;6.286;2023-04-21T04:01:09;99187.31;;;5.41;93.65
51321;BME280;38732;49.556;6.286;2023-04-21T04:03:37;99183.13;;;5.46;90.46
51321;BME280;38732;49.556;6.286;2023-04-21T04:06:06;99191.53;;;5.37;90.34
51321;BME280;38732;49.556;6.286;2023-04-21T04:08:34;99184.13;;;5.54;91.24
51321;BME280;38732;49.556;6.286;2023-04-21T04:11:02;99191.44;;;5.33;91.29
51321;BME280;38732;49.556;6.286;2023-04-21T04:13:30;99190.31;;;5.15;91.08
51321;BME280;38732;49.556;6.286;2023-04-21T04:15:59;99190.38;;;5.20;90.91
51321;BME280;38732;49.556;6.286;2023-04-21T04:18:27;99193.00;;;5.23;92.61
51321;BME280;38732;49.556;6.286;2023-04-21T04:20:55;99189.81;;;5.38;89.41
51321;BME280;38732;49.556;6.286;2023-04-21T04:23:23;99187.63;;;5.08;91.49
51321;BME280;38732;49.556;6.286;2023-04-21T04:25:51;99188.91;;;5.33;90.35
51321;BME280;38732;49.556;6.286;2023-04-21T04:28:20;99196.06;;;5.02;93.37
51321;BME280;38732;49.556;6.286;2023-04-21T04:30:48;99190.31;;;5.15;93.61
51321;BME280;38732;49.556;6.286;2023-04-21T04:33:16;99191.44;;;5.33;90.91
51321;BME280;38732;49.556;6.286;2023-04-21T04:35:44;99192.22;;;5.29;89.25
51321;BME280;38732;49.556;6.286;2023-04-21T04:38:13;99196.06;;;5.04;93.73
51321;BME280;38732;49.556;6.286;2023-04-21T04:40:41;99195.47;;;5.18;92.25
51321;BME280;38732;49.556;6.286;2023-04-21T04:43:09;99192.78;;;5.11;89.69
51321;BME280;38732;49.556;6.286;2023-04-21T04:45:37;99191.88;;;5.07;92.47
51321;BME280;38732;49.556;6.286;2023-04-21T04:48:06;99195.97;;;4.99;94.72
51321;BME280;38732;49.556;6.286;2023-04-21T04:50:34;99192.09;;;5.19;92.38
51321;BME280;38732;49.556;6.286;2023-04-21T04:53:02;99192.09;;;5.19;92.94
51321;BME280;38732;49.556;6.286;2023-04-21T04:55:31;99194.69;;;5.23;91.74
51321;BME280;38732;49.556;6.286;2023-04-21T04:57:59;99197.91;;;5.11;90.36
51321;BME280;38732;49.556;6.286;2023-04-21T05:00:28;99197.84;;;5.08;92.59
51321;BME280;38732;49.556;6.286;2023-04-21T05:02:56;99203.59;;;4.96;93.71
51321;BME280;38732;49.556;6.286;2023-04-21T05:05:24;99202.50;;;5.30;92.34
51321;BME280;38732;49.556;6.286;2023-04-21T05:07:52;99204.75;;;5.13;95.09
51321;BME280;38732;49.556;6.286;2023-04-21T05:10:20;99203.47;;;5.37;92.14
51321;BME280;38732;49.556;6.286;2023-04-21T05:12:49;99198.13;;;5.23;95.98
51321;BME280;38732;49.556;6.286;2023-04-21T05:15:17;99208.97;;;5.61;92.50
51321;BME280;38732;49.556;6.286;2023-04-21T05:17:45;99211.91;;;5.31;96.35
51321;BME280;38732;49.556;6.286;2023-04-21T05:20:14;99210.53;;;5.52;95.53
51321;BME280;38732;49.556;6.286;2023-04-21T05:22:42;99212.25;;;5.53;97.87
51321;BME280;38732;49.556;6.286;2023-04-21T05:25:11;99210.78;;;5.69;96.45
51321;BME280;38732;49.556;6.286;2023-04-21T05:27:39;99208.03;;;5.56;97.50
51321;BME280;38732;49.556;6.286;2023-04-21T05:30:08;99210.97;;;5.79;97.10
51321;BME280;38732;49.556;6.286;2023-04-21T05:32:37;99208.78;;;6.04;94.58
51321;BME280;38732;49.556;6.286;2023-04-21T05:35:05;99203.72;;;6.09;96.14
51321;BME280;38732;49.556;6.286;2023-04-21T05:37:34;99209.00;;;6.19;93.09
51321;BME280;38732;49.556;6.286;2023-04-21T05:40:02;99209.75;;;6.12;93.21
51321;BME280;38732;49.556;6.286;2023-04-21T05:42:30;99208.91;;;6.13;92.04
51321;BME280;38732;49.556;6.286;2023-04-21T05:44:58;99211.56;;;6.21;94.44
51321;BME280;38732;49.556;6.286;2023-04-21T05:47:27;99211.38;;;6.05;95.33
51321;BME280;38732;49.556;6.286;2023-04-21T05:49:55;99206.69;;;6.41;96.45
51321;BME280;38732;49.556;6.286;2023-04-21T05:52:23;99212.63;;;6.35;96.68
51321;BME280;38732;49.556;6.286;2023-04-21T05:54:51;99202.72;;;6.64;97.19
51321;BME280;38732;49.556;6.286;2023-04-21T05:57:19;99197.72;;;6.78;96.35
51321;BME280;38732;49.556;6.286;2023-04-21T05:59:47;99213.03;;;6.69;97.41
51321;BME280;38732;49.556;6.286;2023-04-21T06:02:16;99203.84;;;6.89;96.48
51321;BME280;38732;49.556;6.286;2023-04-21T06:04:44;99208.19;;;6.98;98.50
51321;BME280;38732;49.556;6.286;2023-04-21T06:07:12;99206.69;;;7.19;96.75
51321;BME280;38732;49.556;6.286;2023-04-21T06:09:40;99196.28;;;7.03;99.23
51321;BME280;38732;49.556;6.286;2023-04-21T06:12:08;99192.94;;;7.12;100.00
51321;BME280;38732;49.556;6.286;2023-04-21T06:14:37;99193.00;;;7.20;100.00
51321;BME280;38732;49.556;6.286;2023-04-21T06:17:05;99190.75;;;7.58;100.00
51321;BME280;38732;49.556;6.286;2023-04-21T06:19:37;99189.28;;;7.89;100.00
51321;BME280;38732;49.556;6.286;2023-04-21T06:22:05;99189.34;;;8.03;100.00
51321;BME280;38732;49.556;6.286;2023-04-21T06:24:33;99185.16;;;8.25;98.83
51321;BME280;38732;49.556;6.286;2023-04-21T06:27:01;99175.81;;;8.36;98.27
51321;BME280;38732;49.556;6.286;2023-04-21T06:29:29;99178.41;;;8.42;98.57
51321;BME280;38732;49.556;6.286;2023-04-21T06:31:58;99177.66;;;8.73;97.14
51321;BME280;38732;49.556;6.286;2023-04-21T06:34:26;99176.81;;;8.75;97.25
51321;BME280;38732;49.556;6.286;2023-04-21T06:36:54;99176.81;;;8.77;96.00
51321;BME280;38732;49.556;6.286;2023-04-21T06:39:22;99177.66;;;8.74;96.38
51321;BME280;38732;49.556;6.286;2023-04-21T06:41:50;99177.72;;;8.87;96.06
51321;BME280;38732;49.556;6.286;2023-04-21T06:44:19;99171.69;;;8.98;96.48
51321;BME280;38732;49.556;6.286;2023-04-21T06:46:47;99173.44;;;9.13;95.92
51321;BME280;38732;49.556;6.286;2023-04-21T06:49:15;99169.16;;;9.52;92.37
51321;BME280;38732;49.556;6.286;2023-04-21T06:51:43;99171.75;;;9.52;91.64
51321;BME280;38732;49.556;6.286;2023-04-21T06:54:12;99177.72;;;9.77;90.37
51321;BME280;38732;49.556;6.286;2023-04-21T06:56:40;99169.97;;;9.80;89.42
51321;BME280;38732;49.556;6.286;2023-04-21T06:59:08;99172.56;;;9.76;89.42
51321;BME280;38732;49.556;6.286;2023-04-21T07:01:37;99163.94;;;9.87;90.87
51321;BME280;38732;49.556;6.286;2023-04-21T07:04:05;99166.47;;;10.07;88.74
51321;BME280;38732;49.556;6.286;2023-04-21T07:06:33;99167.22;;;10.54;87.73
51321;BME280;38732;49.556;6.286;2023-04-21T07:09:01;99161.16;;;10.56;86.76
51321;BME280;38732;49.556;6.286;2023-04-21T07:11:30;99163.75;;;10.50;89.47
51321;BME280;38732;49.556;6.286;2023-04-21T07:13:58;99153.34;;;10.72;87.27
51321;BME280;38732;49.556;6.286;2023-04-21T07:16:27;99161.09;;;10.67;84.52
51321;BME280;38732;49.556;6.286;2023-04-21T07:18:55;99158.41;;;10.86;84.83
51321;BME280;38732;49.556;6.286;2023-04-21T07:21:23;99155.00;;;10.80;87.56
51321;BME280;38732;49.556;6.286;2023-04-21T07:23:52;99158.47;;;10.81;86.51
51321;BME280;38732;49.556;6.286;2023-04-21T07:26:20;99152.31;;;10.99;86.45
51321;BME280;38732;49.556;6.286;2023-04-21T07:28:48;99151.50;;;10.94;85.67
51321;BME280;38732;49.556;6.286;2023-04-21T07:31:17;99145.28;;;11.16;83.06
51321;BME280;38732;49.556;6.286;2023-04-21T07:33:45;99139.00;;;11.47;82.03
51321;BME280;38732;49.556;6.286;2023-04-21T07:36:14;99144.22;;;11.43;83.34
51321;BME280;38732;49.556;6.286;2023-04-21T07:38:42;99143.19;;;11.60;81.62
51321;BME280;38732;49.556;6.286;2023-04-21T07:41:11;99146.50;;;11.74;79.84
51321;BME280;38732;49.556;6.286;2023-04-21T07:43:40;99135.31;;;11.74;81.06
51321;BME280;38732;49.556;6.286;2023-04-21T07:46:08;99136.91;;;11.89;77.31
51321;BME280;38732;49.556;6.286;2023-04-21T07:48:36;99138.63;;;11.90;75.28
51321;BME280;38732;49.556;6.286;2023-04-21T07:51:06;99142.91;;;11.94;75.97
51321;BME280;38732;49.556;6.286;2023-04-21T07:53:34;99140.22;;;12.00;77.37
51321;BME280;38732;49.556;6.286;2023-04-21T07:56:02;99143.34;;;12.31;75.59
51321;BME280;38732;49.556;6.286;2023-04-21T07:58:30;99135.31;;;12.49;76.84
51321;BME280;38732;49.556;6.286;2023-04-21T08:00:58;99129.06;;;12.64;73.99
51321;BME280;38732;49.556;6.286;2023-04-21T08:03:27;99130.97;;;12.51;75.94
51321;BME280;38732;49.556;6.286;2023-04-21T08:05:55;99138.41;;;12.09;77.37
51321;BME280;38732;49.556;6.286;2023-04-21T08:08:23;99130.69;;;12.05;77.42
51321;BME280;38732;49.556;6.286;2023-04-21T08:10:52;99126.66;;;12.52;78.85
51321;BME280;38732;49.556;6.286;2023-04-21T08:13:20;99133.00;;;12.91;75.76
51321;BME280;38732;49.556;6.286;2023-04-21T08:15:49;99125.84;;;13.09;73.70
51321;BME280;38732;49.556;6.286;2023-04-21T08:18:17;99127.09;;;12.83;76.38
51321;BME280;38732;49.556;6.286;2023-04-21T08:20:46;99121.69;;;12.97;74.42
51321;BME280;38732;49.556;6.286;2023-04-21T08:23:14;99123.94;;;12.61;80.53
51321;BME280;38732;49.556;6.286;2023-04-21T08:25:43;99116.31;;;13.08;78.57
51321;BME280;38732;49.556;6.286;2023-04-21T08:28:11;99111.44;;;12.88;78.68
51321;BME280;38732;49.556;6.286;2023-04-21T08:30:39;99121.13;;;13.35;75.15
51321;BME280;38732;49.556;6.286;2023-04-21T08:33:08;99113.41;;;13.31;75.64
51321;BME280;38732;49.556;6.286;2023-04-21T08:35:36;99111.59;;;13.36;75.23
51321;BME280;38732;49.556;6.286;2023-04-21T08:38:04;99106.00;;;13.57;73.55
51321;BME280;38732;49.556;6.286;2023-04-21T08:40:35;99102.78;;;13.45;73.49
51321;BME280;38732;49.556;6.286;2023-04-21T08:43:05;99088.41;;;13.75;70.55
51321;BME280;38732;49.556;6.286;2023-04-21T08:45:34;99089.69;;;13.97;69.95
51321;BME280;38732;49.556;6.286;2023-04-21T08:48:02;99097.66;;;14.32;68.70
51321;BME280;38732;49.556;6.286;2023-04-21T08:50:31;99090.28;;;14.10;68.47
51321;BME280;38732;49.556;6.286;2023-04-21T08:52:59;99088.69;;;14.05;68.60
51321;BME280;38732;49.556;6.286;2023-04-21T08:55:29;99087.66;;;14.13;71.93
51321;BME280;38732;49.556;6.286;2023-04-21T08:57:57;99085.47;;;14.35;69.27
51321;BME280;38732;49.556;6.286;2023-04-21T09:00:25;99090.97;;;14.62;66.25
51321;BME280;38732;49.556;6.286;2023-04-21T09:02:59;99085.81;;;14.60;66.62
51321;BME280;38732;49.556;6.286;2023-04-21T09:05:32;99077.03;;;15.02;60.02
51321;BME280;38732;49.556;6.286;2023-04-21T09:08:12;99083.41;;;14.88;63.03
51321;BME280;38732;49.556;6.286;2023-04-21T09:10:48;99073.38;;;15.10;62.99
51321;BME280;38732;49.556;6.286;2023-04-21T09:13:18;99048.66;;;15.60;61.50
51321;BME280;38732;49.556;6.286;2023-04-21T09:15:49;99048.72;;;15.58;59.04
51321;BME280;38732;49.556;6.286;2023-04-21T09:18:22;99050.19;;;15.67;59.59
51321;BME280;38732;49.556;6.286;2023-04-21T09:21:04;99056.91;;;16.07;59.79
51321;BME280;38732;49.556;6.286;2023-04-21T09:23:43;99055.16;;;16.07;61.61
51321;BME280;38732;49.556;6.286;2023-04-21T09:26:12;99057.81;;;16.35;56.01
51321;BME280;38732;49.556;6.286;2023-04-21T09:28:46;99054.50;;;16.58;55.64
51321;BME280;38732;49.556;6.286;2023-04-21T09:31:16;99044.06;;;16.87;53.41
51321;BME280;38732;49.556;6.286;2023-04-21T09:34:15;99049.16;;;16.63;55.04
51321;BME280;38732;49.556;6.286;2023-04-21T09:36:33;99046.84;;;17.09;53.99
51321;BME280;38732;49.556;6.286;2023-04-21T09:39:04;99050.63;;;17.00;58.20
51321;BME280;38732;49.556;6.286;2023-04-21T09:41:32;99041.47;;;17.13;54.53
51321;BME280;38732;49.556;6.286;2023-04-21T09:44:01;99044.81;;;17.17;52.76
51321;BME280;38732;49.556;6.286;2023-04-21T09:46:33;99029.34;;;17.37;49.05
51321;BME280;38732;49.556;6.286;2023-04-21T09:49:02;99031.50;;;17.50;51.42
51321;BME280;38732;49.556;6.286;2023-04-21T09:51:31;99033.69;;;17.62;50.21
51321;BME280;38732;49.556;6.286;2023-04-21T09:54:06;99027.72;;;17.83;52.45
51321;BME280;38732;49.556;6.286;2023-04-21T09:56:39;99024.59;;;17.72;49.35
51321;BME280;38732;49.556;6.286;2023-04-21T09:59:11;99033.72;;;18.09;48.69
51321;BME280;38732;49.556;6.286;2023-04-21T10:01:47;99043.59;;;18.02;50.71
51321;BME280;38732;49.556;6.286;2023-04-21T10:04:17;99037.81;;;18.16;45.31
51321;BME280;38732;49.556;6.286;2023-04-21T10:06:46;99036.75;;;18.44;46.65
51321;BME280;38732;49.556;6.286;2023-04-21T10:09:17;99035.00;;;18.44;45.53
51321;BME280;38732;49.556;6.286;2023-04-21T10:11:48;99029.03;;;18.41;46.91
51321;BME280;38732;49.556;6.286;2023-04-21T10:14:16;99021.97;;;18.87;46.17
51321;BME280;38732;49.556;6.286;2023-04-21T10:16:55;99022.53;;;18.73;48.42
51321;BME280;38732;49.556;6.286;2023-04-21T10:19:25;99014.34;;;18.82;48.37
51321;BME280;38732;49.556;6.286;2023-04-21T10:21:56;99018.09;;;18.97;48.18
51321;BME280;38732;49.556;6.286;2023-04-21T10:24:29;99010.38;;;19.55;40.68
51321;BME280;38732;49.556;6.286;2023-04-21T10:26:57;99017.50;;;19.72;40.38
51321;BME280;38732;49.556;6.286;2023-04-21T10:29:30;99028.03;;;19.71;39.97
51321;BME280;38732;49.556;6.286;2023-04-21T10:31:58;99026.66;;;20.01;43.02
51321;BME280;38732;49.556;6.286;2023-04-21T10:34:34;99026.25;;;20.30;44.61
51321;BME280;38732;49.556;6.286;2023-04-21T10:39:36;99026.50;;;19.86;45.63
51321;BME280;38732;49.556;6.286;2023-04-21T10:44:44;99015.75;;;20.11;43.33
51321;BME280;38732;49.556;6.286;2023-04-21T10:47:37;99013.94;;;20.68;41.90
51321;BME280;38732;49.556;6.286;2023-04-21T10:50:20;99007.53;;;20.37;45.99
51321;BME280;38732;49.556;6.286;2023-04-21T10:55:25;98986.94;;;20.83;40.71
51321;BME280;38732;49.556;6.286;2023-04-21T10:57:54;98985.69;;;21.25;40.85
51321;BME280;38732;49.556;6.286;2023-04-21T11:00:23;98972.13;;;21.17;37.89
51321;BME280;38732;49.556;6.286;2023-04-21T11:03:03;98971.50;;;21.47;39.83
51321;BME280;38732;49.556;6.286;2023-04-21T11:05:37;98967.16;;;22.11;36.15
51321;BME280;38732;49.556;6.286;2023-04-21T11:08:10;98962.53;;;22.32;38.60
51321;BME280;38732;49.556;6.286;2023-04-21T11:10:54;98965.63;;;22.54;35.55
51321;BME280;38732;49.556;6.286;2023-04-21T11:13:25;98970.31;;;22.79;36.56
51321;BME280;38732;49.556;6.286;2023-04-21T11:16:02;98971.09;;;22.96;38.25
51321;BME280;38732;49.556;6.286;2023-04-21T11:18:42;98964.81;;;23.57;34.92
51321;BME280;38732;49.556;6.286;2023-04-21T11:21:13;98962.34;;;23.97;34.32
51321;BME280;38732;49.556;6.286;2023-04-21T11:23:48;98970.00;;;23.73;34.49
51321;BME280;38732;49.556;6.286;2023-04-21T11:26:17;98968.22;;;23.74;36.72
51321;BME280;38732;49.556;6.286;2023-04-21T11:28:48;98964.81;;;25.22;35.13
51321;BME280;38732;49.556;6.286;2023-04-21T11:31:16;98954.34;;;26.08;31.98
51321;BME280;38732;49.556;6.286;2023-04-21T11:33:45;98956.66;;;26.85;31.72
51321;BME280;38732;49.556;6.286;2023-04-21T11:36:13;98953.66;;;26.89;29.66
51321;BME280;38732;49.556;6.286;2023-04-21T11:38:42;98949.50;;;27.09;30.64
51321;BME280;38732;49.556;6.286;2023-04-21T11:41:10;98941.69;;;27.75;28.33
51321;BME280;38732;49.556;6.286;2023-04-21T11:43:38;98944.63;;;27.39;29.70
51321;BME280;38732;49.556;6.286;2023-04-21T11:46:21;98949.78;;;27.40;30.56
51321;BME280;38732;49.556;6.286;2023-04-21T11:51:34;98948.31;;;27.14;28.73
51321;BME280;38732;49.556;6.286;2023-04-21T11:54:04;98950.38;;;26.27;29.73
51321;BME280;38732;49.556;6.286;2023-04-21T11:56:38;98947.03;;;25.62;29.07
51321;BME280;38732;49.556;6.286;2023-04-21T11:59:14;98939.84;;;25.26;30.23
51321;BME280;38732;49.556;6.286;2023-04-21T12:01:44;98951.53;;;24.56;31.07
51321;BME280;38732;49.556;6.286;2023-04-21T12:04:23;98942.53;;;23.77;32.91
51321;BME280;38732;49.556;6.286;2023-04-21T12:06:58;98949.53;;;23.34;34.17
51321;BME280;38732;49.556;6.286;2023-04-21T12:09:27;98964.25;;;21.84;37.25
51321;BME280;38732;49.556;6.286;2023-04-21T12:11:56;98962.03;;;21.09;37.68
51321;BME280;38732;49.556;6.286;2023-04-21T12:14:25;98957.91;;;20.33;38.63
51321;BME280;38732;49.556;6.286;2023-04-21T12:16:55;98958.47;;;20.39;38.03
51321;BME280;38732;49.556;6.286;2023-04-21T12:19:41;98958.25;;;19.89;42.46
51321;BME280;38732;49.556;6.286;2023-04-21T12:22:14;98961.16;;;20.38;42.43
51321;BME280;38732;49.556;6.286;2023-04-21T12:24:43;98972.66;;;20.35;40.78
51321;BME280;38732;49.556;6.286;2023-04-21T12:27:12;98972.97;;;19.52;43.20
51321;BME280;38732;49.556;6.286;2023-04-21T12:29:40;98989.25;;;18.54;43.90
51321;BME280;38732;49.556;6.286;2023-04-21T12:32:08;98984.53;;;19.07;46.10
51321;BME280;38732;49.556;6.286;2023-04-21T12:34:36;98963.72;;;19.04;50.66
51321;BME280;38732;49.556;6.286;2023-04-21T12:37:05;98969.16;;;19.20;52.47
51321;BME280;38732;49.556;6.286;2023-04-21T12:39:33;98965.78;;;18.97;53.78
51321;BME280;38732;49.556;6.286;2023-04-21T12:42:01;98963.41;;;18.69;53.84
51321;BME280;38732;49.556;6.286;2023-04-21T12:44:30;98958.44;;;18.85;55.65
51321;BME280;38732;49.556;6.286;2023-04-21T12:46:58;98958.94;;;19.13;53.73
51321;BME280;38732;49.556;6.286;2023-04-21T12:49:26;98954.06;;;19.85;57.70
51321;BME280;38732;49.556;6.286;2023-04-21T12:51:54;98951.50;;;21.44;52.22
51321;BME280;38732;49.556;6.286;2023-04-21T12:54:22;98943.44;;;22.89;45.59
51321;BME280;38732;49.556;6.286;2023-04-21T12:56:51;98941.94;;;24.14;38.67
51321;BME280;38732;49.556;6.286;2023-04-21T12:59:19;98936.31;;;24.20;38.36
51321;BME280;38732;49.556;6.286;2023-04-21T13:01:47;98940.19;;;25.34;41.45
51321;BME280;38732;49.556;6.286;2023-04-21T13:04:17;98924.25;;;26.81;36.68
51321;BME280;38732;49.556;6.286;2023-04-21T13:06:46;98922.53;;;27.94;32.26
51321;BME280;38732;49.556;6.286;2023-04-21T13:09:15;98918.91;;;27.73;33.12
51321;BME280;38732;49.556;6.286;2023-04-21T13:11:43;98906.94;;;28.56;30.62
51321;BME280;38732;49.556;6.286;2023-04-21T13:14:11;98913.09;;;27.00;30.88
51321;BME280;38732;49.556;6.286;2023-04-21T13:16:40;98910.09;;;25.86;32.05
51321;BME280;38732;49.556;6.286;2023-04-21T13:19:09;98907.97;;;24.76;35.68
51321;BME280;38732;49.556;6.286;2023-04-21T13:21:37;98906.63;;;23.46;33.95
51321;BME280;38732;49.556;6.286;2023-04-21T13:24:05;98900.81;;;22.98;36.15
51321;BME280;38732;49.556;6.286;2023-04-21T13:26:34;98897.41;;;24.76;34.94